LEMDLEVC

Guest
Details From LEMD - Barajas
To LEVC - Valencia
Flight Number -
Tags generated
Created
Modified
Stats Distance 154 nm / 285 km
Max Altitude 9,700 ft / 2,957 m
Waypoints 3
Social Downloads 25
Likes 0
Share

Download

Looking for another format? Having issues loading an existing format? Contact us
Advertisement - Login to hide

Notes

Basic altitude profile: - Ascent Rate: 2000ft/min - Ascent Speed: 250kts - Cruise Altitude: 35000ft - Cruise Speed: 420kts - Descent Rate: 1500ft/min - Descent Speed: 250kts Options: - Use NATs: yes - Use PACOTS: yes - Use low airways: no - Use high airways: yes

Route

LEMD MINGU LEVC

ID Type Via Altitude (ft/m) Position (lat/lon) Dist (leg/tot) Name
O LEMD APT - 0 / 0 40.49045 / -3.56061 - / 0 nm Barajas
MINGU FIX - 9,700 / 2,957 39.82616 / -1.48082 103 / 103 nm
O LEVC APT - 0 / 0 39.48824 / -0.48389 50 / 153 nm Valencia

Altitude Profile

Advertisement - Login to hide

LEMD

Details ICAO LEMD (MAD)
Name Adolfo Suarez Madrid-Barajas
Region Spain
Timezone Europe/Madrid (UTC+1.0)
Stats Elevation 1,998 ft / 609 m (AMSL)
Location 40.495300° -3.560200°
Runways 4
Magnetic Variation 0.331° W

METAR

LEMD 300700Z 30001KT 9999 FEW075 03/02 Q1022 NOSIG

Decode

TAF

TAF LEMD 300500Z 3006/0112 VRB04KT CAVOK TX14/3015Z TN02/0106Z= TAF MRLB 300538Z 3006/0106 10010KT 9999 FEW035 SCT150 TX31/3019Z TN21/3011Z TEMPO 3006/3008 14005KT TEMPO 3010/3018 26004KT

Decode

Departure Runways

ID Width Length Bearing (true/mag) Surface Threshold Overrun Markings Lighting
14L 197 ft / 60 m 11,494 ft / 3,504 m 142.31° / 142.65° ASPHALT 0 ft / 0 m 0 ft / 0 m APP CENTERLINE EDGE THRESHOLD
14R 197 ft / 60 m 13,097 ft / 3,992 m 142.31° / 142.64° ASPHALT 0 ft / 0 m 0 ft / 0 m APP CENTERLINE EDGE THRESHOLD
18L 197 ft / 60 m 11,494 ft / 3,503 m 179.76° / 180.09° ASPHALT 1,621 ft / 494 m 0 ft / 0 m PREC-APP CENTERLINE EDGE THRESHOLD ALSF-II TDZ REIL-OMNI
18R 197 ft / 60 m 13,723 ft / 4,183 m 179.75° / 180.08° ASPHALT 2,644 ft / 806 m 0 ft / 0 m PREC-APP CENTERLINE EDGE THRESHOLD ALSF-II TDZ REIL-OMNI
32L 197 ft / 60 m 13,097 ft / 3,992 m 322.32° / 322.66° ASPHALT 3,041 ft / 927 m 0 ft / 0 m PREC-APP CENTERLINE EDGE THRESHOLD ALSF-II TDZ REIL-OMNI
32R 197 ft / 60 m 11,494 ft / 3,504 m 322.33° / 322.66° ASPHALT 1,627 ft / 496 m 0 ft / 0 m PREC-APP CENTERLINE EDGE THRESHOLD ALSF-II TDZ REIL-OMNI
36L 197 ft / 60 m 13,723 ft / 4,183 m 359.75° / 0.08° ASPHALT 0 ft / 0 m 0 ft / 0 m APP CENTERLINE EDGE THRESHOLD
36R 197 ft / 60 m 11,494 ft / 3,503 m 359.76° / 0.09° ASPHALT 0 ft / 0 m 0 ft / 0 m APP CENTERLINE EDGE THRESHOLD

LEVC

Details ICAO LEVC (VLC)
Name Valencia
Region Spain
Timezone Europe/Madrid (UTC+1.0)
Stats Elevation 225 ft / 69 m (AMSL)
Location 39.490000° -0.483345°
Runways 1
Magnetic Variation 0.526° E

METAR

LEVC 300700Z VRB02KT CAVOK 08/07 Q1022 NOSIG

Decode

TAF

TAF AMD LEVC 300638Z 3006/0106 27006KT 9999 FEW025 TX18/3013Z TN08/0106Z TEMPO 3012/3018 13006KT

Decode

Destination Runways

ID Width Length Bearing (true/mag) Surface Threshold Overrun Markings Lighting
12 148 ft / 45 m 10,529 ft / 3,209 m 116.25° / 115.73° ASPHALT 0 ft / 0 m 787 ft / 240 m PREC-APP CENTERLINE EDGE THRESHOLD CALVERT REIL-OMNI
30 148 ft / 45 m 10,529 ft / 3,209 m 296.28° / 295.75° ASPHALT 974 ft / 297 m 945 ft / 288 m PREC-APP CENTERLINE EDGE THRESHOLD CALVERT REIL-OMNI

Approach Navaids

Runway Type Ident Frequency Range Bearing (true/mag) Slope Elevation
12 DME VLN 111.50 MHz 25 nm / 46 km - - 256 ft / 78 m (AMSL)
12 LOC-ILS VLN 111.50 MHz 18 nm / 33 km 116.20° / 115.67 ° - 256 ft / 78 m (AMSL)
12 GS VLN 111.50 MHz 10 nm / 19 km 116.40° / 115.87 ° 3.00° 256 ft / 78 m (AMSL)
30 OM OM - - 296.26° / 295.74 ° - 225 ft / 69 m (AMSL)
30 MM MM - - 296.26° / 295.74 ° - 225 ft / 69 m (AMSL)
30 DME IVC 110.10 MHz 18 nm / 33 km - - 203 ft / 62 m (AMSL)
30 LOC-ILS IVC 110.10 MHz 18 nm / 33 km 296.19° / 295.67 ° - 225 ft / 69 m (AMSL)
30 GS IVC 110.10 MHz 10 nm / 19 km 296.52° / 296.00 ° 3.00° 225 ft / 69 m (AMSL)

Popular Alternatives